RESULTATS »

INSCRITS PRESENTATS ACABEN RETIRATS DESQUALIFICATS DIST. TRAM 1 DIST. TRAM 2 DIST. TRAM 3 TEMP. EXT TEMP. AIGUA
131 115 16 0 750 24 5 25 27

CLASSIFICACIÓ

MASCULÍ FEMENÍ CATEGORIA CLUBS (MASCULINA) CLUBS (FEMENINA) INDIVIDUALS GRUPS D'EDAT

CATEGORIA: SUB23M
LLOCDORSALNOMCLUBCAT.T.META| P.Tram 1 || P.Tram 2 |Km/hTEMPS| P.Tram 3 |PARC_1PARC_2
1 3311MARC MALLARACH GUINARTCLUB NATACIO OLOTSUB23M01:23:56100:11:191900:50:2428.5701:02:30300:21:2600:00:4800:00:33
2 3658ALBERT ALQUEZAR PRATCLUB CASTELLFOLLIT TRIATLSUB23M01:38:421700:13:554800:56:1125.6301:11:035300:27:3900:00:5800:00:41
3 4872DIDAC MEMBRIVES BARNIOLCLUB ESCOLA TRIATLO IJ3SUB23M01:41:418000:17:272900:52:3627.3801:12:017400:29:4000:01:5800:01:20
4 1040DÍDAC OSET CÉSPEDESINDEPENDENTSUB23M01:44:101300:12:565400:57:4424.9401:12:258300:31:4500:01:4600:01:07
5 6014MARC SIEIROLLICENCIA DE DIASUB23M01:46:447100:16:206500:59:4524.1001:18:385900:28:0600:02:3300:01:37
6 6008MIQUEL LLUCH CASTILLONLLICENCIA DE DIASUB23M01:47:299700:18:116000:58:4924.4801:19:275500:28:0200:02:2700:01:02
CATEGORIA: V1M
LLOCDORSALNOMCLUBCAT.T.META| P.Tram 1 || P.Tram 2 |Km/hTEMPS| P.Tram 3 |PARC_1PARC_2
1 1139ALBERT VALLS CALVOINDEPENDENTV1M01:25:271600:13:36500:47:5330.0701:02:441300:22:4300:01:1600:00:45
2 330RAÚL CARRIZOSA PEDROLC.N. VILAFRANCA VBSPORTSV1M01:26:39600:12:351400:50:0528.7501:04:051000:22:3400:01:2500:00:40
3 5223ORIOL CASTELLS MILLETC.A. IGUALADAV1M01:30:155000:16:221500:50:0928.7101:08:04700:22:1100:01:3300:00:47
4 2962LUIS JAVIER SANCHEZ RAJACAMBRILS CLUB TRIATLOV1M01:30:462200:14:212400:51:1828.0701:06:442200:24:0200:01:0600:01:01
5 2066DAVID ARTES DIAZJOVENTUT ATLETICA MONTCADV1M01:31:181100:13:222300:50:3828.4401:05:084200:26:1000:01:0900:00:43
6 3040JORDI NOTARIO SABATETRI2WINV1M01:32:074200:15:463600:53:3126.9101:11:02200:21:0500:01:4500:00:55
7 3750DANIEL AUTET GUBIERASTRIATLO FISIORUTPUJOL.COMV1M01:33:251200:13:092200:50:3528.4701:05:106300:28:1500:01:2700:00:47
8 2919RAMON LLADO RIBAC.A. IGUALADAV1M01:34:378200:17:532800:52:1827.5301:11:511400:22:4600:01:4100:00:41
9 158JUAN LOPEZ CHAVESA.D. RUNNING VIGIAV1M01:34:483400:14:334400:54:5426.2301:11:261800:23:2200:01:5900:01:04
10 7012OSCAR CREIX NAVARROLLICENCIA DE DIAV1M01:36:184400:15:113000:52:5527.2101:10:403500:25:3800:02:3400:01:13
11 552JUAN CARLOS GARCIA GALINDINDEPENDENTV1M01:36:223800:15:18000:00:000.0000:00:00000:00:0000:01:5100:00:00
12 3396FROILAN TUTUSAUS LOPEZCLUB TRIATLO VALLIRANAV1M01:38:30900:12:294100:54:4226.3301:08:577300:29:3300:01:4700:01:11
13 6010DAVID LLOP ROIGLLICENCIA DE DIAV1M01:40:102600:14:405700:58:0624.7801:14:114100:25:5900:01:2500:00:47
14 7024ANTONIO MANUEL ARCO TORRELLICENCIA DE DIAV1M01:40:268900:17:55000:00:000.0000:00:00000:00:0000:02:1100:00:00
15 6025RAMON CODINA JUANUIXLLICENCIA DE DIAV1M01:42:249800:18:532600:51:4427.8401:12:317500:29:5300:01:5400:01:21
16 3711ALBERTO TORIJA DE LA VEGAJOVENTUT ATLETICA MONTCADV1M01:42:549200:18:10000:00:000.0000:00:00000:00:0000:02:1200:00:00
17 6030DAVID GARCIA CRUZLLICENCIA DE DIAV1M01:43:3710700:15:29000:00:000.0000:00:00000:00:0000:06:2300:00:00
18 4629JAUME CAÑAS BERNABEUC. BCN TRIATHLON TOTAL3V1M01:45:489400:19:03000:00:000.0000:00:00000:00:0000:01:2900:00:00
19 1461DAVID FERNANDEZ CORTADAC. BIKE AREA LLAGOSTERAV1M01:45:532900:14:525900:58:4324.5201:14:527900:31:0100:01:1800:00:55
20 6003SERGI HERRAEZ MARIMONLLICENCIA DE DIAV1M01:46:254800:15:20000:00:000.0000:00:00000:00:0000:02:3100:00:00
21 7030JOSEP TEIXIDÓ RECORDÀLLICENCIA DE DIAV1M01:51:342100:13:37000:00:000.0000:00:00000:00:0000:01:4700:00:00
22 6031LLUÍS PLANS PALAULLICENCIA DE DIAV1M01:51:433100:14:18000:00:000.0000:00:00000:00:0000:02:0400:00:00
23 6005SERGI BARGALLO ABADLLICENCIA DE DIAV1M01:52:114700:15:448301:05:3821.9401:23:276700:28:4400:02:0600:01:12
24 7010JOSE LUIS MUÑOZ ARENASLLICENCIA DE DIAV1M01:53:014300:15:158601:06:1721.7201:24:006900:29:0100:02:2900:01:04
25 7008DAVID MORALES RODRIGUEZLLICENCIA DE DIAV1M01:55:5310800:19:147301:01:5023.2901:24:018400:31:5200:02:5700:00:53
26 250FRANCESC RUBIO BARCELOCLUB TRIATLO GRANOLLERSV1M01:56:455800:16:198101:05:2322.0201:23:538600:32:5200:02:1100:01:39
27 1330FRANCESC FREIXAS CARBONELCLUB NATACIÓ SITGESV1M01:58:189500:18:548701:07:1121.4301:27:467800:30:3200:01:4100:01:14
28 7025CARLES MOLINA ESCRIBÀLLICENCIA DE DIAV1M01:59:447600:16:48000:00:000.0000:00:00000:00:0000:02:2500:00:00
29 2512IGNASI POVES PRIMINDEPENDENTV1M02:04:448400:17:089101:08:4020.9701:28:259100:36:1900:02:3700:01:42
CATEGORIA: V2M
LLOCDORSALNOMCLUBCAT.T.META| P.Tram 1 || P.Tram 2 |Km/hTEMPS| P.Tram 3 |PARC_1PARC_2
1 4683JESUS GONZALEZ FARRESCLUB TRIATLO BAIX MONTSENV2M01:36:292500:14:313500:53:2926.9201:09:334700:26:5600:01:3400:00:57
2 2953ANTONIO CASTRO VEGACLUB TRIATLO GRANOLLERSV2M01:45:287200:16:566901:00:4123.7301:19:353800:25:5300:01:5800:01:04
3 990FRANCESC SAEZ LOPEZCLUB TRIATLO GRANOLLERSV2M01:47:106300:17:076200:59:2824.2201:18:067000:29:0400:01:3100:01:10
4 1499ANTONI SALANOVA ROCAC.A. IGUALADAV2M01:50:5911200:21:516600:59:4724.0901:23:105400:27:4900:01:3200:00:55
5 2622RAFAEL CHUECA BLASCOABSOLUT SPORTV2M01:51:3111000:20:43000:00:000.0000:00:00000:00:0000:01:5400:00:00
6 7019XAVIER FERRER BALLESTERLLICENCIA DE DIAV2M01:58:1011100:20:447601:03:0422.8301:26:138500:31:5700:02:2600:01:19
7 6029SALVADOR ROS AGUSTÍLLICENCIA DE DIAV2M02:05:07000:00:00000:00:000.0000:00:00000:00:0000:00:0000:00:00
CATEGORIA: V1F
LLOCDORSALNOMCLUBCAT.T.META| P.Tram 1 || P.Tram 2 |Km/hTEMPS| P.Tram 3 |PARC_1PARC_2
1 5151MARTA PRADO LUQUEC.A. IGUALADAV1F01:48:268800:18:165000:57:2525.0801:17:248000:31:0200:01:4300:01:25
2 7032VICTORIA LEON RODRIGUEZLLICENCIA DE DIAV1F01:52:1310900:19:537201:01:4923.2901:24:105800:28:0300:02:2800:01:11
3 1851MARTA SANCHEZ SALINASCLUB TRIATLO L´EIX DE NAVV1F01:55:418300:17:59000:00:000.0000:00:00000:00:0000:01:4100:00:00
4 1813ANNA PLATERO ESPINOSAC.A. XALOCV1F01:58:257900:17:487901:05:0022.1501:24:248800:34:0100:01:3600:01:18
5 5132MARÍA DEL SEÑOR VILLAR GICLUB TRITRAININGV1F01:59:5810600:19:08000:00:000.0000:00:00000:00:0000:02:2800:00:00
6 6002MONTSE SUBIRANA CODINALLICENCIA DE DIAV1F02:02:527800:17:138901:07:4421.2601:27:019000:35:5100:02:0500:01:01
CATEGORIA: ABM
LLOCDORSALNOMCLUBCAT.T.META| P.Tram 1 || P.Tram 2 |Km/hTEMPS| P.Tram 3 |PARC_1PARC_2
1 2416IHOR PRISSIAJNYICLUB NATACIO OLOTABM01:20:17400:11:24400:47:5230.0801:00:17100:20:0000:01:0100:00:43
2 1557DÍDAC DOMINGO CARRASCOSATRIATLO AMICS DE RIUDOMSABM01:20:58500:12:35100:45:4231.5100:59:18500:21:4000:01:0200:00:49
3 2830SERGI LASHERAS RABIONETTRIATLO GIRONA COSTA BRAVABM01:23:01300:11:17600:48:2129.7801:00:42900:22:1900:01:0400:00:37
4 7033SERGI MATEU VIDALLLICENCIA DE DIAABM01:25:262300:14:33200:46:5430.7001:02:391500:22:4700:01:1200:00:38
5 5795CLARET ROSSET HIDALGOCLUB TRIATLO GRANOLLERSABM01:25:332000:14:20300:47:2130.4101:02:401600:22:5300:00:5900:00:40
6 5602JONATHAN MARQUEZ GARCIAC.N. TARRACOABM01:25:55700:13:031000:49:4428.9501:03:45600:22:1000:00:5800:00:27
7 1179ALBERT BONILLA SOLERCLUB CASTELLFOLLIT TRIATLABM01:26:56200:11:161700:50:1828.6301:02:312500:24:2500:00:5800:00:36
8 6001MARC COSTA SITJALA NEVERA ROJA TRIADDICTSABM01:29:131800:12:271600:50:1228.6901:05:152100:23:5800:02:3600:00:53
9 833DANIEL CAMPOS HUERTASCLUB GASSS TRIATLOABM01:29:364100:16:201300:50:0128.7901:07:24800:22:1200:01:0300:00:47
10 7015PAU VILAR ROSANASLLICENCIA DE DIAABM01:29:522700:14:36700:48:5229.4701:04:593200:24:5300:01:3100:00:42
11 3020FRANCISCO COLLE PEREIRACLUB TRIATLO GRANOLLERSABM01:30:073600:15:222100:50:3428.4801:07:311100:22:3600:01:3600:00:46
12 422OSCAR BARRIENTOS PELLICERINDEPENDENTABM01:30:257000:17:171200:49:5928.8101:08:51400:21:3400:01:3500:00:56
13 6017GUILLEM ERRA NOGUERLLICENCIA DE DIAABM01:30:444000:15:472000:50:2728.5401:07:461700:22:5800:01:3300:00:40
14 6009RAUL SAYAGO VILLARRAZOLLICENCIA DE DIAABM01:31:408500:16:27800:49:1329.2601:09:021200:22:3800:03:2200:01:20
15 7023DANI CUENCA SOLDADOLLICENCIA DE DIAABM01:31:476700:17:15900:49:2929.1001:08:131900:23:3400:01:3000:00:33
16 4112ALEJANDRO TORO TOMASCLUB TRIATLO BADIA DEL VAABM01:32:305300:16:571100:49:4528.9401:07:562700:24:3400:01:1400:00:51
17 3134ENRIC CASTELLOTE TOSTTG TRIATLO SITGESABM01:32:35800:12:553700:53:4326.8101:07:562800:24:3900:01:1800:00:40
18 1479DANIEL ALARCON VILACLUB TRIATLO GRANOLLERSABM01:33:461400:13:413900:54:3226.4101:09:182600:24:2800:01:0500:00:48
19 7002RAFAEL CEREZUELA LORENZOLLICENCIA DE DIAABM01:35:498600:17:212700:51:5527.7401:11:522000:23:5700:02:3600:01:00
20 732OSCAR PEREZ SERRANOC.A. IGUALADAABM01:35:534900:16:213200:53:1627.0301:11:083000:24:4500:01:3100:00:48
21 2638CARLES FARRES CISTEROINDEPENDENTABM01:36:276800:17:042500:51:4227.8501:10:304000:25:5700:01:4400:01:04
22 5958BERNAT VINYALS VILARNAUC.A. IGUALADAABM01:36:513000:14:503100:53:0627.1201:09:205100:27:3100:01:2400:00:47
23 7017JORDI MEMBRIVES BARNIOLLLICENCIA DE DIAABM01:37:036600:16:261800:50:1928.6201:09:015600:28:0200:02:1700:01:07
24 2291DANIEL FABREGA COLOMER CLUB NATACIO OLOTABM01:37:182400:14:164000:54:4026.3401:10:324600:26:4600:01:3600:00:55
25 7029JULIAN MARTÍNEZ FRIASLLICENCIA DE DIAABM01:37:415100:16:324200:54:4726.2901:12:553100:24:4600:01:3700:01:13
26 2113RAFAEL ÁNGEL CORONADO PÉRTG TRIATLO SITGESABM01:37:591900:14:164700:56:1025.6401:11:264300:26:3300:01:0000:00:57
27 1560JORDI DOMENECH ANDREUC.A. IGUALADAABM01:39:104500:16:233800:54:2226.4901:12:094800:27:0100:01:2500:00:55
28 2035JOSEP LECHUGA ALONSOCLUB TRIATLO GRANOLLERSABM01:39:246900:17:004300:54:5226.2501:13:433600:25:4100:01:5100:01:07
29 7016JULI FERRER MONTIELLLICENCIA DE DIAABM01:39:565200:16:123300:53:1727.0301:11:266500:28:3000:01:5700:00:40
30 7003JORDI SANS MONCLUSLLICENCIA DE DIAABM01:40:083500:14:344600:56:0825.6501:12:594900:27:0900:02:1700:01:18
31 7028DANIEL MARÍN SÁNCHEZLLICENCIA DE DIAABM01:40:206100:16:465100:57:2525.0801:16:002400:24:2000:01:5000:01:02
32 5379DAVID PUIG ALAYC.N. SWIMFASTER TRIATLOABM01:41:073200:14:324900:56:2825.5001:12:576100:28:1000:01:5700:01:30
33 2544ISIDRE ROCA LOPEZC.A. IGUALADAABM01:41:085400:16:294500:55:3225.9301:13:455000:27:2300:01:4500:00:58
34 7013XAVI ASCASO MOLINALLICENCIA DE DIAABM01:41:1210200:18:51000:00:000.0000:00:00000:00:0000:02:2100:00:00
35 420MARC UBACH MORERAC.N. SWIMFASTER TRIATLOABM01:42:023700:15:455200:57:3125.0401:14:305200:27:3200:01:1400:01:07
36 2468JORDI LARIOS SANCHISABSOLUT SPORTABM01:42:212800:15:01000:00:000.0000:00:00000:00:0000:01:0800:00:00
37 2540JOSEP MALAVE SOTERASC.A. IGUALADAABM01:43:416200:17:223400:53:2926.9201:12:068200:31:3500:01:1500:01:05
38 7005JORDI ROCA BUSQUETSLLICENCIA DE DIAABM01:44:145500:16:376701:00:0623.9601:18:233700:25:5100:01:4000:00:41
39 7014ORIOL DRAPER MUNT LLICENCIA DE DIAABM01:44:245600:15:31000:00:000.0000:00:00000:00:0000:02:4900:00:00
40 6015RUBEN LUQUE RUEDALLICENCIA DE DIAABM01:44:2710100:18:255600:57:5224.8801:19:023300:25:2500:02:4500:01:18
41 6012JUAN CARLOS RODRIGUEZ PALLLICENCIA DE DIAABM01:44:2710300:19:095800:58:3124.6101:19:472900:24:4000:02:0700:01:04
42 2664DAVID OTAL DE SANROMACLUB TRIATLO GRANOLLERSABM01:44:465900:17:076300:59:3424.1701:18:064500:26:4000:01:2600:01:10
43 3829ROGER PEIXÓ FITÉCLUB TRIATLO I RUN WITH LABM01:47:1211300:22:185500:57:4924.9101:21:173900:25:5500:01:1100:01:02
44 6021JORDI HEREDIA POVEDALLICENCIA DE DIAABM01:47:447500:17:066801:00:2923.8101:19:415700:28:0300:02:0600:01:13
45 6027DAVID FANES RAMÍREZLLICENCIA DE DIAABM01:47:539100:18:037001:00:5723.6301:21:194400:26:3400:02:2000:00:54
46 6013MIGUEL ANGEL VERA RUANOLLICENCIA DE DIAABM01:47:569900:18:446100:58:5024.4801:19:476000:28:0900:02:1300:01:01
47 705MARC GISPERT  GIRONC.E. PICORNELLABM01:48:3910500:18:327701:03:0522.8301:24:372300:24:0200:03:0000:01:23
48 279JORDI GRAU VILLAESCUSATRIATLO TRAMUNTANA FIGUERABM01:48:4110000:18:50000:00:000.0000:00:00000:00:0000:02:1200:00:00
49 7027FELIPE RODRIGUEZ LORENTELLICENCIA DE DIAABM01:48:494600:16:177101:01:0723.5601:18:557600:29:5400:01:3100:00:56
50 6016JORDI COMPTE COLOMLLICENCIA DE DIAABM01:49:006500:15:59000:00:000.0000:00:00000:00:0000:02:4200:00:00
51 7034GONZALO MANZANEDA TUDELALLICENCIA DE DIAABM01:50:337300:16:057401:02:2923.0501:21:267100:29:0700:02:5200:01:28
52 6024NARCÍS MORATÓLLICENCIA DE DIAABM01:52:451500:13:239001:08:3221.0101:23:197200:29:2600:01:2500:01:07
53 285GABRIEL ÁLVAREZ CABATRIATLO TRAMUNTANA FIGUERABM01:53:037400:16:518201:05:2921.9901:24:306600:28:3300:02:1100:00:50
54 6011IVAN OTIN LAMIELLLICENCIA DE DIAABM01:54:259600:18:49000:00:000.0000:00:00000:00:0000:01:4700:00:00
55 7011PERE MURILLO ARANDALLICENCIA DE DIAABM01:55:248100:17:11000:00:000.0000:00:00000:00:0000:02:1600:00:00
56 7031AITOR GARCIA ORTEGALLICENCIA DE DIAABM01:57:0010400:18:457801:04:3722.2901:25:548100:31:0600:02:3300:01:15
57 7021MARIO IVAN AVILA MANTILLALLICENCIA DE DIAABM01:57:2111400:20:07000:00:000.0000:00:00000:00:0000:03:5700:00:00
58 6026LLUÍS MELENDEZ BELTRILLICENCIA DE DIAABM02:01:529300:16:55000:00:000.0000:00:00000:00:0000:03:2900:00:00
CATEGORIA: ABF
LLOCDORSALNOMCLUBCAT.T.META| P.Tram 1 || P.Tram 2 |Km/hTEMPS| P.Tram 3 |PARC_1PARC_2
1 1955ISABEL GÓMEZ FARGASTRIATLO AMICS DE RIUDOMSABF01:37:201000:13:125300:57:3425.0101:11:533400:25:2700:01:0700:00:57
2 6022ALBA SERRA GIBERTLLICENCIA DE DIAABF01:47:177700:17:296400:59:3624.1601:18:526400:28:2500:01:4700:01:05
3 5137AITANA DOMÈNECH MARTÍNEZPRAT TRIATLO 1994ABF01:47:576400:16:52000:00:000.0000:00:00000:00:0000:01:4800:00:00
4 7026MARTA BERNALDO GUARDIOLALLICENCIA DE DIAABF01:49:115700:16:517501:02:3023.0401:20:576200:28:1400:01:3600:02:16
5 6028SARA CAMARA CAÑIZARESLLICENCIA DE DIAABF01:51:153900:15:358001:05:0122.1501:22:146800:29:0100:01:3800:01:04
6 5031TERESA PASCUAL GODALLT-BIKES CLUB TRIATLOABF01:53:328700:17:58000:00:000.0000:00:00000:00:0000:02:0100:00:00
7 7038LAURA MATALLICENCIA DE DIAABF01:56:169000:18:088401:05:3921.9301:25:517700:30:2500:02:0500:01:05
8 4024SONIA MARTINEZ TIJERASCLUB TRIATLO BAIX MONTSENABF01:57:113300:14:368801:07:2721.3501:23:588700:33:1300:01:5600:01:41
9 1943ALBA GRACIA PAÑELLATG TRIATLO SITGESABF01:59:446000:16:478501:05:5121.8701:24:258900:35:1900:01:4800:01:17

FEDERACIÓ CATALANA DE TRIATLÓ
SEU CENTRAL I CORRESPONDÈNCIA: Rambla Guipúscoa 23-25 2on-D · 08018 Barcelona · Tel / Fax : 93 307 93 35
ATENCIÓ AL PÚBLIC: Passeig Joan de Borbó, 93 (Club Natació Barcelona) · 08039 Barcelona · Tel / Fax : 93 307 93 32